sensor_id;sensor_type;location;lat;lon;timestamp;temperature;humidity
12436;DHT22;6282;51.440;6.938;2023-11-21T00:02:25;9.20;99.90
12436;DHT22;6282;51.440;6.938;2023-11-21T00:04:52;9.30;99.90
12436;DHT22;6282;51.440;6.938;2023-11-21T00:07:20;9.30;99.90
12436;DHT22;6282;51.440;6.938;2023-11-21T00:09:48;9.30;99.90
12436;DHT22;6282;51.440;6.938;2023-11-21T00:12:14;9.10;99.90
12436;DHT22;6282;51.440;6.938;2023-11-21T00:14:42;9.10;99.90
12436;DHT22;6282;51.440;6.938;2023-11-21T00:17:09;9.10;99.90
12436;DHT22;6282;51.440;6.938;2023-11-21T00:19:36;9.10;99.90
12436;DHT22;6282;51.440;6.938;2023-11-21T00:22:03;9.10;99.90
12436;DHT22;6282;51.440;6.938;2023-11-21T00:24:31;9.20;99.90
12436;DHT22;6282;51.440;6.938;2023-11-21T00:26:57;9.10;99.90
12436;DHT22;6282;51.440;6.938;2023-11-21T00:29:24;9.20;99.90
12436;DHT22;6282;51.440;6.938;2023-11-21T00:31:51;9.30;99.90
12436;DHT22;6282;51.440;6.938;2023-11-21T00:34:18;9.40;99.90
12436;DHT22;6282;51.440;6.938;2023-11-21T00:36:45;9.40;99.90
12436;DHT22;6282;51.440;6.938;2023-11-21T00:39:12;9.40;99.90
12436;DHT22;6282;51.440;6.938;2023-11-21T00:41:40;9.50;99.90
12436;DHT22;6282;51.440;6.938;2023-11-21T00:44:07;9.50;99.90
12436;DHT22;6282;51.440;6.938;2023-11-21T00:46:34;9.60;99.90
12436;DHT22;6282;51.440;6.938;2023-11-21T00:49:01;9.60;99.90
12436;DHT22;6282;51.440;6.938;2023-11-21T00:51:29;9.70;99.90
12436;DHT22;6282;51.440;6.938;2023-11-21T00:53:56;9.60;99.90
12436;DHT22;6282;51.440;6.938;2023-11-21T00:56:23;9.70;99.90
12436;DHT22;6282;51.440;6.938;2023-11-21T00:58:51;9.70;99.90
12436;DHT22;6282;51.440;6.938;2023-11-21T01:01:19;9.70;99.90
12436;DHT22;6282;51.440;6.938;2023-11-21T01:03:47;9.70;99.90
12436;DHT22;6282;51.440;6.938;2023-11-21T01:06:14;9.70;99.90
12436;DHT22;6282;51.440;6.938;2023-11-21T01:08:41;9.60;99.90
12436;DHT22;6282;51.440;6.938;2023-11-21T01:11:08;9.60;99.90
12436;DHT22;6282;51.440;6.938;2023-11-21T01:13:37;9.60;99.90
12436;DHT22;6282;51.440;6.938;2023-11-21T01:16:06;9.60;99.90
12436;DHT22;6282;51.440;6.938;2023-11-21T01:18:34;9.60;99.90
12436;DHT22;6282;51.440;6.938;2023-11-21T01:21:01;9.60;99.90
12436;DHT22;6282;51.440;6.938;2023-11-21T01:23:28;9.60;99.90
12436;DHT22;6282;51.440;6.938;2023-11-21T01:25:56;9.60;99.90
12436;DHT22;6282;51.440;6.938;2023-11-21T01:28:23;9.50;99.90
12436;DHT22;6282;51.440;6.938;2023-11-21T01:30:50;9.60;99.90
12436;DHT22;6282;51.440;6.938;2023-11-21T01:33:18;9.60;99.90
12436;DHT22;6282;51.440;6.938;2023-11-21T01:35:45;9.60;99.90
12436;DHT22;6282;51.440;6.938;2023-11-21T01:38:12;9.70;99.90
12436;DHT22;6282;51.440;6.938;2023-11-21T01:40:39;9.80;99.90
12436;DHT22;6282;51.440;6.938;2023-11-21T01:43:06;9.30;99.90
12436;DHT22;6282;51.440;6.938;2023-11-21T01:45:34;9.40;99.90
12436;DHT22;6282;51.440;6.938;2023-11-21T01:48:01;9.60;99.90
12436;DHT22;6282;51.440;6.938;2023-11-21T01:50:30;9.60;99.90
12436;DHT22;6282;51.440;6.938;2023-11-21T01:52:57;9.70;99.90
12436;DHT22;6282;51.440;6.938;2023-11-21T01:55:24;9.60;99.90
12436;DHT22;6282;51.440;6.938;2023-11-21T01:57:52;9.60;99.90
12436;DHT22;6282;51.440;6.938;2023-11-21T02:00:19;9.50;99.90
12436;DHT22;6282;51.440;6.938;2023-11-21T02:02:48;9.30;99.90
12436;DHT22;6282;51.440;6.938;2023-11-21T02:05:16;9.30;99.90
12436;DHT22;6282;51.440;6.938;2023-11-21T02:07:45;9.40;99.90
12436;DHT22;6282;51.440;6.938;2023-11-21T02:10:14;9.50;99.90
12436;DHT22;6282;51.440;6.938;2023-11-21T02:12:41;9.50;99.90
12436;DHT22;6282;51.440;6.938;2023-11-21T02:15:08;9.60;99.90
12436;DHT22;6282;51.440;6.938;2023-11-21T02:17:40;9.60;99.90
12436;DHT22;6282;51.440;6.938;2023-11-21T02:20:10;9.60;99.90
12436;DHT22;6282;51.440;6.938;2023-11-21T02:22:41;9.40;99.90
12436;DHT22;6282;51.440;6.938;2023-11-21T02:25:09;9.30;99.90
12436;DHT22;6282;51.440;6.938;2023-11-21T02:27:36;9.50;99.90
12436;DHT22;6282;51.440;6.938;2023-11-21T02:30:04;9.50;99.90
12436;DHT22;6282;51.440;6.938;2023-11-21T02:32:33;9.60;99.90
12436;DHT22;6282;51.440;6.938;2023-11-21T02:35:00;9.60;99.90
12436;DHT22;6282;51.440;6.938;2023-11-21T02:37:28;9.50;99.90
12436;DHT22;6282;51.440;6.938;2023-11-21T02:39:54;9.50;99.90
12436;DHT22;6282;51.440;6.938;2023-11-21T02:42:23;9.50;99.90
12436;DHT22;6282;51.440;6.938;2023-11-21T02:44:49;9.50;99.90
12436;DHT22;6282;51.440;6.938;2023-11-21T02:47:16;9.50;99.90
12436;DHT22;6282;51.440;6.938;2023-11-21T02:49:43;9.40;99.90
12436;DHT22;6282;51.440;6.938;2023-11-21T02:52:10;9.50;99.90
12436;DHT22;6282;51.440;6.938;2023-11-21T02:54:37;9.50;99.90
12436;DHT22;6282;51.440;6.938;2023-11-21T02:57:04;9.50;99.90
12436;DHT22;6282;51.440;6.938;2023-11-21T02:59:32;9.50;99.90
12436;DHT22;6282;51.440;6.938;2023-11-21T03:01:59;9.60;99.90
12436;DHT22;6282;51.440;6.938;2023-11-21T03:04:26;9.60;99.90
12436;DHT22;6282;51.440;6.938;2023-11-21T03:06:52;9.60;99.90
12436;DHT22;6282;51.440;6.938;2023-11-21T03:09:19;9.70;99.90
12436;DHT22;6282;51.440;6.938;2023-11-21T03:11:46;9.70;99.90
12436;DHT22;6282;51.440;6.938;2023-11-21T03:14:13;9.70;99.90
12436;DHT22;6282;51.440;6.938;2023-11-21T03:16:41;9.70;99.90
12436;DHT22;6282;51.440;6.938;2023-11-21T03:19:10;9.70;99.90
12436;DHT22;6282;51.440;6.938;2023-11-21T03:21:37;9.90;99.90
12436;DHT22;6282;51.440;6.938;2023-11-21T03:24:05;9.70;99.90
12436;DHT22;6282;51.440;6.938;2023-11-21T03:26:33;9.70;99.90
12436;DHT22;6282;51.440;6.938;2023-11-21T03:28:59;9.70;99.90
12436;DHT22;6282;51.440;6.938;2023-11-21T03:31:26;9.60;99.90
12436;DHT22;6282;51.440;6.938;2023-11-21T03:33:54;9.60;99.90
12436;DHT22;6282;51.440;6.938;2023-11-21T03:36:21;9.60;99.90
12436;DHT22;6282;51.440;6.938;2023-11-21T03:38:50;9.60;99.90
12436;DHT22;6282;51.440;6.938;2023-11-21T03:41:17;9.60;99.90
12436;DHT22;6282;51.440;6.938;2023-11-21T03:43:44;9.70;99.90
12436;DHT22;6282;51.440;6.938;2023-11-21T03:46:11;9.70;99.90
12436;DHT22;6282;51.440;6.938;2023-11-21T03:48:38;9.70;99.90
12436;DHT22;6282;51.440;6.938;2023-11-21T03:51:06;9.70;99.90
12436;DHT22;6282;51.440;6.938;2023-11-21T03:53:33;9.80;99.90
12436;DHT22;6282;51.440;6.938;2023-11-21T03:56:02;9.70;99.90
12436;DHT22;6282;51.440;6.938;2023-11-21T03:58:29;9.60;99.90
12436;DHT22;6282;51.440;6.938;2023-11-21T04:00:56;9.50;99.90
12436;DHT22;6282;51.440;6.938;2023-11-21T04:03:23;9.50;99.90
12436;DHT22;6282;51.440;6.938;2023-11-21T04:05:49;9.50;99.90
12436;DHT22;6282;51.440;6.938;2023-11-21T04:08:18;9.50;99.90
12436;DHT22;6282;51.440;6.938;2023-11-21T04:10:44;9.50;99.90
12436;DHT22;6282;51.440;6.938;2023-11-21T04:13:11;9.40;99.90
12436;DHT22;6282;51.440;6.938;2023-11-21T04:15:38;9.30;99.90
12436;DHT22;6282;51.440;6.938;2023-11-21T04:18:05;9.30;99.90
12436;DHT22;6282;51.440;6.938;2023-11-21T04:20:32;9.40;99.90
12436;DHT22;6282;51.440;6.938;2023-11-21T04:22:58;9.40;99.90
12436;DHT22;6282;51.440;6.938;2023-11-21T04:25:26;9.50;99.90
12436;DHT22;6282;51.440;6.938;2023-11-21T04:27:53;9.60;99.90
12436;DHT22;6282;51.440;6.938;2023-11-21T04:30:20;9.60;99.90
12436;DHT22;6282;51.440;6.938;2023-11-21T04:32:47;9.60;99.90
12436;DHT22;6282;51.440;6.938;2023-11-21T04:35:14;9.60;99.90
12436;DHT22;6282;51.440;6.938;2023-11-21T04:37:41;9.60;99.90
12436;DHT22;6282;51.440;6.938;2023-11-21T04:40:08;9.70;99.90
12436;DHT22;6282;51.440;6.938;2023-11-21T04:42:37;9.70;99.90
12436;DHT22;6282;51.440;6.938;2023-11-21T04:45:04;9.70;99.90
12436;DHT22;6282;51.440;6.938;2023-11-21T04:47:34;9.70;99.90
12436;DHT22;6282;51.440;6.938;2023-11-21T04:50:02;9.70;99.90
12436;DHT22;6282;51.440;6.938;2023-11-21T04:52:30;9.60;99.90
12436;DHT22;6282;51.440;6.938;2023-11-21T04:54:56;9.60;99.90
12436;DHT22;6282;51.440;6.938;2023-11-21T04:57:24;9.70;99.90
12436;DHT22;6282;51.440;6.938;2023-11-21T04:59:52;9.50;99.90
12436;DHT22;6282;51.440;6.938;2023-11-21T05:02:18;9.50;99.90
12436;DHT22;6282;51.440;6.938;2023-11-21T05:04:46;9.60;99.90
12436;DHT22;6282;51.440;6.938;2023-11-21T05:07:14;9.60;99.90
12436;DHT22;6282;51.440;6.938;2023-11-21T05:09:42;9.70;99.90
12436;DHT22;6282;51.440;6.938;2023-11-21T05:12:09;9.60;99.90
12436;DHT22;6282;51.440;6.938;2023-11-21T05:14:37;9.70;99.90
12436;DHT22;6282;51.440;6.938;2023-11-21T05:17:05;9.70;99.90
12436;DHT22;6282;51.440;6.938;2023-11-21T05:19:33;9.60;99.90
12436;DHT22;6282;51.440;6.938;2023-11-21T05:22:01;9.50;99.90
12436;DHT22;6282;51.440;6.938;2023-11-21T05:24:27;9.50;99.90
12436;DHT22;6282;51.440;6.938;2023-11-21T05:26:54;9.60;99.90
12436;DHT22;6282;51.440;6.938;2023-11-21T05:29:22;9.50;99.90
12436;DHT22;6282;51.440;6.938;2023-11-21T05:31:49;9.40;99.90
12436;DHT22;6282;51.440;6.938;2023-11-21T05:34:17;9.40;99.90
12436;DHT22;6282;51.440;6.938;2023-11-21T05:36:44;9.50;99.90
12436;DHT22;6282;51.440;6.938;2023-11-21T05:39:12;9.50;99.90
12436;DHT22;6282;51.440;6.938;2023-11-21T05:41:38;9.60;99.90
12436;DHT22;6282;51.440;6.938;2023-11-21T05:44:05;9.50;99.90
12436;DHT22;6282;51.440;6.938;2023-11-21T05:46:32;9.50;99.90
12436;DHT22;6282;51.440;6.938;2023-11-21T05:49:00;9.50;99.90
12436;DHT22;6282;51.440;6.938;2023-11-21T05:51:28;9.50;99.90
12436;DHT22;6282;51.440;6.938;2023-11-21T05:53:54;9.50;99.90
12436;DHT22;6282;51.440;6.938;2023-11-21T05:56:21;9.50;99.90
12436;DHT22;6282;51.440;6.938;2023-11-21T05:58:48;9.50;99.90
12436;DHT22;6282;51.440;6.938;2023-11-21T06:01:15;9.60;99.90
12436;DHT22;6282;51.440;6.938;2023-11-21T06:03:42;9.60;99.90
12436;DHT22;6282;51.440;6.938;2023-11-21T06:06:09;9.50;99.90
12436;DHT22;6282;51.440;6.938;2023-11-21T06:08:37;9.50;99.90
12436;DHT22;6282;51.440;6.938;2023-11-21T06:11:04;9.50;99.90
12436;DHT22;6282;51.440;6.938;2023-11-21T06:13:31;9.50;99.90
12436;DHT22;6282;51.440;6.938;2023-11-21T06:15:58;9.40;99.90
12436;DHT22;6282;51.440;6.938;2023-11-21T06:18:25;9.40;99.90
12436;DHT22;6282;51.440;6.938;2023-11-21T06:20:52;9.40;99.90
12436;DHT22;6282;51.440;6.938;2023-11-21T06:23:19;9.40;99.90
12436;DHT22;6282;51.440;6.938;2023-11-21T06:25:47;9.30;99.90
12436;DHT22;6282;51.440;6.938;2023-11-21T06:28:14;9.30;99.90
12436;DHT22;6282;51.440;6.938;2023-11-21T06:30:43;9.40;99.90
12436;DHT22;6282;51.440;6.938;2023-11-21T06:33:10;9.40;99.90
12436;DHT22;6282;51.440;6.938;2023-11-21T06:35:37;9.40;99.90
12436;DHT22;6282;51.440;6.938;2023-11-21T06:38:05;9.60;99.90
12436;DHT22;6282;51.440;6.938;2023-11-21T06:40:32;9.40;99.90
12436;DHT22;6282;51.440;6.938;2023-11-21T06:43:01;9.40;99.90
12436;DHT22;6282;51.440;6.938;2023-11-21T06:45:28;9.50;99.90
12436;DHT22;6282;51.440;6.938;2023-11-21T06:47:55;9.50;99.90
12436;DHT22;6282;51.440;6.938;2023-11-21T06:50:21;9.40;99.90
12436;DHT22;6282;51.440;6.938;2023-11-21T06:52:48;9.50;99.90
12436;DHT22;6282;51.440;6.938;2023-11-21T06:55:15;9.50;99.90
12436;DHT22;6282;51.440;6.938;2023-11-21T06:57:42;9.50;99.90
12436;DHT22;6282;51.440;6.938;2023-11-21T07:00:12;9.50;99.90
12436;DHT22;6282;51.440;6.938;2023-11-21T07:02:40;9.50;99.90
12436;DHT22;6282;51.440;6.938;2023-11-21T07:05:07;9.50;99.90
12436;DHT22;6282;51.440;6.938;2023-11-21T07:07:34;9.50;99.90
12436;DHT22;6282;51.440;6.938;2023-11-21T07:10:03;9.50;99.90
12436;DHT22;6282;51.440;6.938;2023-11-21T07:12:31;9.50;99.90
12436;DHT22;6282;51.440;6.938;2023-11-21T07:14:58;9.50;99.90
12436;DHT22;6282;51.440;6.938;2023-11-21T07:17:26;9.60;99.90
12436;DHT22;6282;51.440;6.938;2023-11-21T07:19:53;9.70;99.90
12436;DHT22;6282;51.440;6.938;2023-11-21T07:22:20;9.70;99.90
12436;DHT22;6282;51.440;6.938;2023-11-21T07:24:48;9.80;99.90
12436;DHT22;6282;51.440;6.938;2023-11-21T07:27:16;9.80;99.90
12436;DHT22;6282;51.440;6.938;2023-11-21T07:29:43;9.80;99.90
12436;DHT22;6282;51.440;6.938;2023-11-21T07:32:10;9.90;99.90
12436;DHT22;6282;51.440;6.938;2023-11-21T07:34:39;9.90;99.90
12436;DHT22;6282;51.440;6.938;2023-11-21T07:37:05;10.00;99.90
12436;DHT22;6282;51.440;6.938;2023-11-21T07:39:32;10.00;99.90
12436;DHT22;6282;51.440;6.938;2023-11-21T07:41:59;9.90;99.90
12436;DHT22;6282;51.440;6.938;2023-11-21T07:44:26;10.00;99.90
12436;DHT22;6282;51.440;6.938;2023-11-21T07:46:52;10.00;99.90
12436;DHT22;6282;51.440;6.938;2023-11-21T07:49:22;10.00;99.90
12436;DHT22;6282;51.440;6.938;2023-11-21T07:51:51;9.90;99.90
12436;DHT22;6282;51.440;6.938;2023-11-21T07:54:18;9.80;99.90
12436;DHT22;6282;51.440;6.938;2023-11-21T07:56:47;9.80;99.90
12436;DHT22;6282;51.440;6.938;2023-11-21T07:59:13;9.90;99.90
12436;DHT22;6282;51.440;6.938;2023-11-21T08:01:40;10.00;99.90
12436;DHT22;6282;51.440;6.938;2023-11-21T08:04:08;10.10;99.90
12436;DHT22;6282;51.440;6.938;2023-11-21T08:06:35;10.10;99.90
12436;DHT22;6282;51.440;6.938;2023-11-21T08:09:03;10.20;99.90
12436;DHT22;6282;51.440;6.938;2023-11-21T08:11:30;10.20;99.90
12436;DHT22;6282;51.440;6.938;2023-11-21T08:13:57;10.20;99.90
12436;DHT22;6282;51.440;6.938;2023-11-21T08:16:24;10.20;99.90
12436;DHT22;6282;51.440;6.938;2023-11-21T08:18:52;10.20;99.90
12436;DHT22;6282;51.440;6.938;2023-11-21T08:21:20;10.30;99.90
12436;DHT22;6282;51.440;6.938;2023-11-21T08:23:46;10.20;99.90
12436;DHT22;6282;51.440;6.938;2023-11-21T08:26:20;10.50;99.90
12436;DHT22;6282;51.440;6.938;2023-11-21T08:28:47;10.40;99.90
12436;DHT22;6282;51.440;6.938;2023-11-21T08:31:14;10.30;99.90
12436;DHT22;6282;51.440;6.938;2023-11-21T08:33:41;10.10;99.90
12436;DHT22;6282;51.440;6.938;2023-11-21T08:36:08;10.00;99.90
12436;DHT22;6282;51.440;6.938;2023-11-21T08:38:36;10.00;99.90
12436;DHT22;6282;51.440;6.938;2023-11-21T08:41:05;10.10;99.90
12436;DHT22;6282;51.440;6.938;2023-11-21T08:43:34;10.10;99.90
12436;DHT22;6282;51.440;6.938;2023-11-21T08:46:01;10.10;99.90
12436;DHT22;6282;51.440;6.938;2023-11-21T08:48:28;10.20;99.90
12436;DHT22;6282;51.440;6.938;2023-11-21T08:50:55;10.40;99.90
12436;DHT22;6282;51.440;6.938;2023-11-21T08:53:22;10.30;99.90
12436;DHT22;6282;51.440;6.938;2023-11-21T08:55:51;10.30;99.90
12436;DHT22;6282;51.440;6.938;2023-11-21T08:58:19;10.20;99.90
12436;DHT22;6282;51.440;6.938;2023-11-21T09:00:48;10.40;99.90
12436;DHT22;6282;51.440;6.938;2023-11-21T09:03:15;10.40;99.90
12436;DHT22;6282;51.440;6.938;2023-11-21T09:05:41;10.50;99.90
12436;DHT22;6282;51.440;6.938;2023-11-21T09:08:08;10.50;99.90
12436;DHT22;6282;51.440;6.938;2023-11-21T09:10:35;10.20;99.90
12436;DHT22;6282;51.440;6.938;2023-11-21T09:15:34;10.30;99.90
12436;DHT22;6282;51.440;6.938;2023-11-21T09:18:03;10.30;99.90
12436;DHT22;6282;51.440;6.938;2023-11-21T09:20:30;10.40;99.90
12436;DHT22;6282;51.440;6.938;2023-11-21T09:22:57;10.50;99.90
12436;DHT22;6282;51.440;6.938;2023-11-21T09:25:24;10.60;99.90
12436;DHT22;6282;51.440;6.938;2023-11-21T09:27:50;10.60;99.90
12436;DHT22;6282;51.440;6.938;2023-11-21T09:30:17;10.70;99.90
12436;DHT22;6282;51.440;6.938;2023-11-21T09:32:45;10.60;99.90
12436;DHT22;6282;51.440;6.938;2023-11-21T09:35:14;10.70;99.90
12436;DHT22;6282;51.440;6.938;2023-11-21T09:37:41;10.70;99.90
12436;DHT22;6282;51.440;6.938;2023-11-21T09:40:10;10.80;99.90
12436;DHT22;6282;51.440;6.938;2023-11-21T09:42:42;10.80;99.90
12436;DHT22;6282;51.440;6.938;2023-11-21T09:45:15;10.80;99.90
12436;DHT22;6282;51.440;6.938;2023-11-21T09:47:45;10.80;99.90
12436;DHT22;6282;51.440;6.938;2023-11-21T09:50:17;10.60;99.90
12436;DHT22;6282;51.440;6.938;2023-11-21T09:52:53;10.60;99.90
12436;DHT22;6282;51.440;6.938;2023-11-21T09:55:21;10.60;99.90
12436;DHT22;6282;51.440;6.938;2023-11-21T09:57:49;10.60;99.90
12436;DHT22;6282;51.440;6.938;2023-11-21T10:00:16;10.70;99.90
12436;DHT22;6282;51.440;6.938;2023-11-21T10:02:45;10.80;99.90
12436;DHT22;6282;51.440;6.938;2023-11-21T10:05:15;10.80;99.90
12436;DHT22;6282;51.440;6.938;2023-11-21T10:07:43;10.80;99.90
12436;DHT22;6282;51.440;6.938;2023-11-21T10:10:12;10.70;99.90
12436;DHT22;6282;51.440;6.938;2023-11-21T10:12:40;10.60;99.90
12436;DHT22;6282;51.440;6.938;2023-11-21T10:15:11;10.70;99.90
12436;DHT22;6282;51.440;6.938;2023-11-21T10:17:44;10.70;99.90
12436;DHT22;6282;51.440;6.938;2023-11-21T10:20:12;10.70;99.90
12436;DHT22;6282;51.440;6.938;2023-11-21T10:22:41;10.70;99.90
12436;DHT22;6282;51.440;6.938;2023-11-21T10:25:08;10.70;99.90
12436;DHT22;6282;51.440;6.938;2023-11-21T10:27:36;10.80;99.90
12436;DHT22;6282;51.440;6.938;2023-11-21T10:30:05;10.80;99.90
12436;DHT22;6282;51.440;6.938;2023-11-21T10:32:33;10.90;99.90
12436;DHT22;6282;51.440;6.938;2023-11-21T10:35:00;11.10;99.90
12436;DHT22;6282;51.440;6.938;2023-11-21T10:37:32;11.20;99.90
12436;DHT22;6282;51.440;6.938;2023-11-21T10:40:00;11.30;99.90
12436;DHT22;6282;51.440;6.938;2023-11-21T10:42:26;11.20;99.90
12436;DHT22;6282;51.440;6.938;2023-11-21T10:44:54;11.30;99.90
12436;DHT22;6282;51.440;6.938;2023-11-21T10:47:21;11.40;99.90
12436;DHT22;6282;51.440;6.938;2023-11-21T10:49:49;11.30;99.90
12436;DHT22;6282;51.440;6.938;2023-11-21T10:52:19;11.30;99.90
12436;DHT22;6282;51.440;6.938;2023-11-21T10:54:46;11.40;99.90
12436;DHT22;6282;51.440;6.938;2023-11-21T10:57:18;11.30;99.90
12436;DHT22;6282;51.440;6.938;2023-11-21T10:59:47;11.30;99.90
12436;DHT22;6282;51.440;6.938;2023-11-21T11:02:21;11.20;99.90
12436;DHT22;6282;51.440;6.938;2023-11-21T11:04:52;11.20;99.90
12436;DHT22;6282;51.440;6.938;2023-11-21T11:07:21;11.20;99.90
12436;DHT22;6282;51.440;6.938;2023-11-21T11:09:49;11.30;99.90
12436;DHT22;6282;51.440;6.938;2023-11-21T11:12:17;11.40;99.90
12436;DHT22;6282;51.440;6.938;2023-11-21T11:14:44;11.50;99.90
12436;DHT22;6282;51.440;6.938;2023-11-21T11:17:12;11.50;99.90
12436;DHT22;6282;51.440;6.938;2023-11-21T11:19:40;11.50;99.90
12436;DHT22;6282;51.440;6.938;2023-11-21T11:22:15;11.40;99.90
12436;DHT22;6282;51.440;6.938;2023-11-21T11:25:03;11.30;99.90
12436;DHT22;6282;51.440;6.938;2023-11-21T11:27:49;11.30;99.90
12436;DHT22;6282;51.440;6.938;2023-11-21T11:30:28;11.30;99.90
12436;DHT22;6282;51.440;6.938;2023-11-21T11:33:08;11.40;99.90
12436;DHT22;6282;51.440;6.938;2023-11-21T11:35:45;11.60;99.90
12436;DHT22;6282;51.440;6.938;2023-11-21T11:38:14;11.50;99.90
12436;DHT22;6282;51.440;6.938;2023-11-21T11:40:41;11.60;99.90
12436;DHT22;6282;51.440;6.938;2023-11-21T11:43:12;11.60;99.90
12436;DHT22;6282;51.440;6.938;2023-11-21T11:45:39;11.50;99.90
12436;DHT22;6282;51.440;6.938;2023-11-21T11:48:10;11.40;99.90
12436;DHT22;6282;51.440;6.938;2023-11-21T11:50:42;11.30;99.90
12436;DHT22;6282;51.440;6.938;2023-11-21T11:53:33;11.20;99.90
12436;DHT22;6282;51.440;6.938;2023-11-21T11:56:23;11.30;99.90
12436;DHT22;6282;51.440;6.938;2023-11-21T11:58:53;11.30;99.90
12436;DHT22;6282;51.440;6.938;2023-11-21T12:01:20;11.40;99.90
12436;DHT22;6282;51.440;6.938;2023-11-21T12:07:04;11.40;99.90
12436;DHT22;6282;51.440;6.938;2023-11-21T12:09:33;11.40;99.90
12436;DHT22;6282;51.440;6.938;2023-11-21T12:12:02;11.40;99.90
12436;DHT22;6282;51.440;6.938;2023-11-21T12:14:30;11.60;99.90
12436;DHT22;6282;51.440;6.938;2023-11-21T12:16:57;11.60;99.90
12436;DHT22;6282;51.440;6.938;2023-11-21T12:19:25;11.60;99.90
12436;DHT22;6282;51.440;6.938;2023-11-21T12:21:52;11.60;99.90
12436;DHT22;6282;51.440;6.938;2023-11-21T12:24:19;11.50;99.90
12436;DHT22;6282;51.440;6.938;2023-11-21T12:26:46;11.40;99.90
12436;DHT22;6282;51.440;6.938;2023-11-21T12:29:13;11.50;99.90
12436;DHT22;6282;51.440;6.938;2023-11-21T12:31:43;11.50;99.90
12436;DHT22;6282;51.440;6.938;2023-11-21T12:34:11;11.50;99.90
12436;DHT22;6282;51.440;6.938;2023-11-21T12:36:38;11.40;99.90
12436;DHT22;6282;51.440;6.938;2023-11-21T12:39:05;11.40;99.90
12436;DHT22;6282;51.440;6.938;2023-11-21T12:41:34;11.40;99.90
12436;DHT22;6282;51.440;6.938;2023-11-21T12:44:01;11.30;99.90
12436;DHT22;6282;51.440;6.938;2023-11-21T12:46:28;11.20;99.90
12436;DHT22;6282;51.440;6.938;2023-11-21T12:48:59;11.20;99.90
12436;DHT22;6282;51.440;6.938;2023-11-21T12:51:26;11.10;99.90
12436;DHT22;6282;51.440;6.938;2023-11-21T12:53:55;11.10;99.90
12436;DHT22;6282;51.440;6.938;2023-11-21T12:56:22;11.10;99.90
12436;DHT22;6282;51.440;6.938;2023-11-21T12:58:50;11.00;99.90
12436;DHT22;6282;51.440;6.938;2023-11-21T13:01:17;10.80;99.90
12436;DHT22;6282;51.440;6.938;2023-11-21T13:03:47;10.90;99.90
12436;DHT22;6282;51.440;6.938;2023-11-21T13:06:18;10.70;99.90
12436;DHT22;6282;51.440;6.938;2023-11-21T13:08:50;10.60;99.90
12436;DHT22;6282;51.440;6.938;2023-11-21T13:11:17;10.60;99.90
12436;DHT22;6282;51.440;6.938;2023-11-21T13:13:45;10.60;99.90
12436;DHT22;6282;51.440;6.938;2023-11-21T13:16:12;10.50;99.90
12436;DHT22;6282;51.440;6.938;2023-11-21T13:18:40;10.50;99.90
12436;DHT22;6282;51.440;6.938;2023-11-21T13:21:08;10.50;99.90
12436;DHT22;6282;51.440;6.938;2023-11-21T13:23:42;10.50;99.90
12436;DHT22;6282;51.440;6.938;2023-11-21T13:26:11;10.60;99.90
12436;DHT22;6282;51.440;6.938;2023-11-21T13:28:40;10.50;99.90
12436;DHT22;6282;51.440;6.938;2023-11-21T13:31:11;10.50;99.90
12436;DHT22;6282;51.440;6.938;2023-11-21T13:33:46;10.50;99.90
12436;DHT22;6282;51.440;6.938;2023-11-21T13:36:17;10.50;99.90
12436;DHT22;6282;51.440;6.938;2023-11-21T13:38:49;10.50;99.90
12436;DHT22;6282;51.440;6.938;2023-11-21T13:41:18;10.60;99.90
12436;DHT22;6282;51.440;6.938;2023-11-21T13:43:45;10.50;99.90
12436;DHT22;6282;51.440;6.938;2023-11-21T13:46:18;10.50;99.90
12436;DHT22;6282;51.440;6.938;2023-11-21T13:48:48;10.40;99.90
12436;DHT22;6282;51.440;6.938;2023-11-21T13:51:21;10.40;99.90
12436;DHT22;6282;51.440;6.938;2023-11-21T13:53:57;10.40;99.90
12436;DHT22;6282;51.440;6.938;2023-11-21T13:56:24;10.40;99.90
12436;DHT22;6282;51.440;6.938;2023-11-21T13:58:54;10.40;99.90
12436;DHT22;6282;51.440;6.938;2023-11-21T14:01:22;10.40;99.90
12436;DHT22;6282;51.440;6.938;2023-11-21T14:04:10;10.30;99.90
12436;DHT22;6282;51.440;6.938;2023-11-21T14:06:45;10.40;99.90
12436;DHT22;6282;51.440;6.938;2023-11-21T14:09:15;10.40;99.90
12436;DHT22;6282;51.440;6.938;2023-11-21T14:11:49;10.50;99.90
12436;DHT22;6282;51.440;6.938;2023-11-21T14:14:17;10.50;99.90
12436;DHT22;6282;51.440;6.938;2023-11-21T14:16:44;10.30;99.90
12436;DHT22;6282;51.440;6.938;2023-11-21T14:19:11;10.50;99.90
12436;DHT22;6282;51.440;6.938;2023-11-21T14:21:41;10.50;99.90
12436;DHT22;6282;51.440;6.938;2023-11-21T14:24:09;10.40;99.90
12436;DHT22;6282;51.440;6.938;2023-11-21T14:26:40;10.30;99.90
12436;DHT22;6282;51.440;6.938;2023-11-21T14:29:07;10.30;99.90
12436;DHT22;6282;51.440;6.938;2023-11-21T14:31:38;10.30;99.90
12436;DHT22;6282;51.440;6.938;2023-11-21T14:34:04;10.30;99.90
12436;DHT22;6282;51.440;6.938;2023-11-21T14:36:32;10.40;99.90
12436;DHT22;6282;51.440;6.938;2023-11-21T14:38:59;10.40;99.90
12436;DHT22;6282;51.440;6.938;2023-11-21T14:41:26;10.40;99.90
12436;DHT22;6282;51.440;6.938;2023-11-21T14:43:56;10.40;99.90
12436;DHT22;6282;51.440;6.938;2023-11-21T14:46:23;10.40;99.90
12436;DHT22;6282;51.440;6.938;2023-11-21T14:48:50;10.50;99.90
12436;DHT22;6282;51.440;6.938;2023-11-21T14:51:24;10.40;99.90
12436;DHT22;6282;51.440;6.938;2023-11-21T14:53:56;10.30;99.90
12436;DHT22;6282;51.440;6.938;2023-11-21T14:56:26;10.20;99.90
12436;DHT22;6282;51.440;6.938;2023-11-21T14:58:57;10.20;99.90
12436;DHT22;6282;51.440;6.938;2023-11-21T15:01:25;10.20;99.90
12436;DHT22;6282;51.440;6.938;2023-11-21T15:04:08;10.20;99.90
12436;DHT22;6282;51.440;6.938;2023-11-21T15:06:40;10.20;99.90
12436;DHT22;6282;51.440;6.938;2023-11-21T15:09:08;10.20;99.90
12436;DHT22;6282;51.440;6.938;2023-11-21T15:12:03;10.20;99.90
12436;DHT22;6282;51.440;6.938;2023-11-21T15:14:40;10.20;99.90
12436;DHT22;6282;51.440;6.938;2023-11-21T15:17:07;10.00;99.90
12436;DHT22;6282;51.440;6.938;2023-11-21T15:19:34;10.00;99.90
12436;DHT22;6282;51.440;6.938;2023-11-21T15:22:02;9.90;99.90
12436;DHT22;6282;51.440;6.938;2023-11-21T15:24:29;9.90;99.90
12436;DHT22;6282;51.440;6.938;2023-11-21T15:26:55;9.80;99.90
12436;DHT22;6282;51.440;6.938;2023-11-21T15:29:23;9.70;99.90
12436;DHT22;6282;51.440;6.938;2023-11-21T15:31:51;9.70;99.90
12436;DHT22;6282;51.440;6.938;2023-11-21T15:34:22;9.90;99.90
12436;DHT22;6282;51.440;6.938;2023-11-21T15:36:49;9.80;99.90
12436;DHT22;6282;51.440;6.938;2023-11-21T15:39:18;9.80;99.90
12436;DHT22;6282;51.440;6.938;2023-11-21T15:41:46;9.90;99.90
12436;DHT22;6282;51.440;6.938;2023-11-21T15:44:13;9.80;99.90
12436;DHT22;6282;51.440;6.938;2023-11-21T15:46:41;9.70;99.90
12436;DHT22;6282;51.440;6.938;2023-11-21T15:49:09;9.60;99.90
12436;DHT22;6282;51.440;6.938;2023-11-21T15:51:39;9.60;99.90
12436;DHT22;6282;51.440;6.938;2023-11-21T15:54:06;9.60;99.90
12436;DHT22;6282;51.440;6.938;2023-11-21T15:56:34;9.60;99.90
12436;DHT22;6282;51.440;6.938;2023-11-21T15:59:02;9.50;99.90
12436;DHT22;6282;51.440;6.938;2023-11-21T16:01:30;9.50;99.90
12436;DHT22;6282;51.440;6.938;2023-11-21T16:03:58;9.50;99.90
12436;DHT22;6282;51.440;6.938;2023-11-21T16:06:27;9.50;99.90
12436;DHT22;6282;51.440;6.938;2023-11-21T16:08:54;9.50;99.90